Time;durP1;ratioP1;P1;durP2;ratioP2;P2;SDS_P1;SDS_P2;PMS_P1;PMS_P2;Temp;Humidity;BMP_temperature;BMP_pressure;BME280_temperature;BME280_humidity;BME280_pressure;Samples;Min_cycle;Max_cycle;Signal;HPM_P1;HPM_P2
2020/12/24 00:00:51;;;;;;;5.45;0.98;;;;;;;8.48;70.50;99675.75;4863908;29;20055;-84
2020/12/24 00:03:18;;;;;;;8.45;1.20;;;;;;;8.90;68.87;99669.66;4857443;29;20505;-84
2020/12/24 00:05:49;;;;;;;6.97;1.33;;;;;;;8.83;69.30;99670.50;4859329;29;20049;-84
2020/12/24 00:08:19;;;;;;;8.55;1.75;;;;;;;8.95;69.56;99684.41;4837953;29;20529;-84
2020/12/24 00:10:48;;;;;;;13.43;1.40;;;;;;;9.05;68.58;99701.78;4844006;29;20060;-84
2020/12/24 00:13:17;;;;;;;8.98;1.42;;;;;;;8.98;68.85;99702.63;4840826;29;20206;-85
2020/12/24 00:15:46;;;;;;;5.53;1.30;;;;;;;8.38;70.23;99706.09;4840849;29;20457;-84
2020/12/24 00:18:18;;;;;;;15.50;2.47;;;;;;;8.23;70.78;99711.25;4837214;29;20077;-84
2020/12/24 00:20:47;;;;;;;11.68;1.52;;;;;;;8.67;68.97;99713.94;4820978;29;20057;-86
2020/12/24 00:23:14;;;;;;;6.97;0.90;;;;;;;8.44;69.60;99731.28;4837768;29;20570;-84
2020/12/24 00:25:41;;;;;;;19.70;3.03;;;;;;;8.04;69.88;99722.47;4840829;29;20066;-85
2020/12/24 00:28:07;;;;;;;8.43;1.55;;;;;;;8.10;69.68;99732.91;4839594;29;20049;-86
2020/12/24 00:30:40;;;;;;;8.90;1.77;;;;;;;8.50;68.82;99732.16;4843788;29;20126;-85
2020/12/24 00:33:13;;;;;;;13.68;2.05;;;;;;;8.72;68.07;99739.13;4821067;29;20066;-86
2020/12/24 00:35:41;;;;;;;16.65;2.38;;;;;;;8.49;68.86;99738.22;4854488;29;20099;-86
2020/12/24 00:38:10;;;;;;;15.80;2.45;;;;;;;8.78;67.76;99745.22;4834150;29;20141;-84
2020/12/24 00:40:39;;;;;;;15.93;2.17;;;;;;;8.81;67.64;99751.28;4835302;29;20045;-86
2020/12/24 00:43:06;;;;;;;12.38;2.20;;;;;;;9.03;66.59;99755.63;4846885;29;20526;-85
2020/12/24 00:45:33;;;;;;;20.25;2.15;;;;;;;8.94;66.74;99758.22;4847087;29;20105;-85
2020/12/24 00:48:08;;;;;;;21.58;2.08;;;;;;;8.89;65.87;99761.69;4855134;29;20056;-84
2020/12/24 00:50:44;;;;;;;32.83;3.05;;;;;;;8.17;67.66;99765.88;4874475;29;20045;-85
2020/12/24 00:53:11;;;;;;;19.10;3.20;;;;;;;8.44;66.32;99768.56;4850410;29;20129;-86
2020/12/24 00:55:38;;;;;;;13.80;2.42;;;;;;;8.10;67.45;99764.13;4859332;29;20056;-85
2020/12/24 00:58:19;;;;;;;17.40;2.22;;;;;;;8.14;66.88;99776.28;4865687;29;20060;-85
2020/12/24 01:00:46;;;;;;;16.30;2.25;;;;;;;8.17;66.06;99781.47;4863625;29;20450;-85
2020/12/24 01:03:13;;;;;;;21.52;2.40;;;;;;;8.02;66.06;99784.88;4873405;29;20508;-84
2020/12/24 01:05:44;;;;;;;20.17;2.20;;;;;;;7.89;66.34;99786.59;4852806;29;20064;-86
2020/12/24 01:08:15;;;;;;;15.50;2.15;;;;;;;7.95;65.84;99783.16;4867104;29;20049;-84
2020/12/24 01:10:45;;;;;;;19.02;3.13;;;;;;;8.17;64.77;99795.38;4862638;29;20116;-84
2020/12/24 01:13:14;;;;;;;15.83;2.30;;;;;;;8.03;64.53;99791.84;4844610;29;20060;-84
2020/12/24 01:15:41;;;;;;;17.42;2.22;;;;;;;8.02;64.43;99791.81;4863180;29;21040;-83
2020/12/24 01:18:10;;;;;;;11.88;2.28;;;;;;;7.86;64.52;99793.50;4876851;29;20396;-85
2020/12/24 01:20:38;;;;;;;11.25;1.77;;;;;;;7.33;65.41;99795.78;4864985;29;20048;-84
2020/12/24 01:23:08;;;;;;;22.60;2.15;;;;;;;7.82;64.24;99800.41;4869231;29;20044;-85
2020/12/24 01:25:36;;;;;;;11.80;2.00;;;;;;;7.54;64.47;99797.63;4843690;29;20141;-84
2020/12/24 01:28:02;;;;;;;14.25;1.88;;;;;;;7.39;63.98;99816.59;4858770;29;20044;-84
2020/12/24 01:30:30;;;;;;;10.18;2.10;;;;;;;7.63;63.56;99808.09;4875011;29;20138;-84
2020/12/24 01:32:57;;;;;;;19.77;1.90;;;;;;;7.26;63.87;99814.78;4868743;29;20049;-84
2020/12/24 01:35:24;;;;;;;26.48;2.92;;;;;;;7.23;64.27;99817.34;4870983;29;20409;-84
2020/12/24 01:37:54;;;;;;;13.93;2.00;;;;;;;7.23;64.21;99828.63;4838738;29;20118;-84
2020/12/24 01:40:37;;;;;;;25.73;2.88;;;;;;;7.16;64.51;99837.22;4874187;29;20049;-83
2020/12/24 01:43:10;;;;;;;16.48;1.80;;;;;;;7.30;63.69;99840.78;4873815;29;20045;-84
2020/12/24 01:45:38;;;;;;;15.60;2.15;;;;;;;7.03;64.19;99848.34;4860807;29;20052;-84
2020/12/24 01:48:08;;;;;;;15.68;2.17;;;;;;;7.14;63.56;99858.84;4872346;29;20485;-83
2020/12/24 01:50:39;;;;;;;12.98;2.08;;;;;;;6.87;63.19;99865.50;4852467;29;20421;-84
2020/12/24 01:53:08;;;;;;;11.07;1.70;;;;;;;7.30;62.31;99866.78;4867642;29;20133;-84
2020/12/24 01:55:35;;;;;;;11.55;1.80;;;;;;;7.03;63.28;99863.06;4872187;29;20044;-84
2020/12/24 01:58:02;;;;;;;14.82;2.05;;;;;;;7.01;63.47;99876.03;4854988;29;20060;-83
2020/12/24 02:00:30;;;;;;;17.52;1.38;;;;;;;6.91;63.50;99880.25;4856929;29;20041;-84
2020/12/24 02:03:02;;;;;;;13.02;1.90;;;;;;;6.54;64.62;99880.72;4871857;29;20572;-83
2020/12/24 02:05:29;;;;;;;9.40;1.55;;;;;;;6.80;64.11;99891.41;4872218;29;20097;-84
2020/12/24 02:07:58;;;;;;;10.57;1.60;;;;;;;7.13;63.12;99896.94;4871545;29;20041;-84
2020/12/24 02:10:30;;;;;;;13.02;1.85;;;;;;;6.45;65.02;99902.25;4871423;29;20072;-84
2020/12/24 02:13:01;;;;;;;12.45;3.53;;;;;;;6.45;65.15;99919.53;4876824;29;20048;-84
2020/12/24 02:15:29;;;;;;;13.95;1.45;;;;;;;6.69;64.82;99912.06;4873954;29;20524;-84
2020/12/24 02:17:56;;;;;;;14.27;1.67;;;;;;;6.86;64.33;99920.88;4870803;29;20056;-84
2020/12/24 02:20:23;;;;;;;11.32;1.50;;;;;;;6.70;64.62;99915.53;4875579;29;20085;-84
2020/12/24 02:22:51;;;;;;;17.75;1.90;;;;;;;6.55;65.14;99917.09;4867241;29;20119;-84
2020/12/24 02:25:17;;;;;;;15.73;1.42;;;;;;;6.49;65.37;99919.59;4874921;29;20050;-84
2020/12/24 02:27:48;;;;;;;8.82;1.38;;;;;;;6.48;65.41;99920.44;4878972;29;20045;-84
2020/12/24 02:30:17;;;;;;;9.50;1.50;;;;;;;6.63;65.19;99921.47;4861149;29;20056;-84
2020/12/24 02:32:44;;;;;;;13.40;1.27;;;;;;;6.50;65.77;99928.25;4876231;29;20056;-83
2020/12/24 02:35:12;;;;;;;13.93;2.15;;;;;;;6.66;65.14;99940.59;4856217;29;20049;-85
2020/12/24 02:37:41;;;;;;;13.80;1.75;;;;;;;6.56;65.54;99933.53;4864047;29;20056;-83
2020/12/24 02:40:09;;;;;;;11.80;1.77;;;;;;;6.50;65.79;99949.91;4870444;29;20097;-84
2020/12/24 02:42:43;;;;;;;12.13;1.17;;;;;;;6.55;65.80;99943.03;4878513;29;20041;-85
2020/12/24 02:45:12;;;;;;;14.15;1.55;;;;;;;6.74;64.92;99941.53;4873459;29;20063;-84
2020/12/24 02:47:39;;;;;;;8.23;1.10;;;;;;;6.71;65.43;99951.91;4864962;29;20048;-82
2020/12/24 02:50:08;;;;;;;12.05;1.10;;;;;;;6.69;65.06;99957.91;4867989;29;20060;-83
2020/12/24 02:52:35;;;;;;;9.18;1.30;;;;;;;6.81;65.01;99950.28;4872927;29;20048;-83
2020/12/24 02:55:03;;;;;;;11.52;1.40;;;;;;;6.73;65.26;99960.56;4868657;29;20049;-83
2020/12/24 02:57:31;;;;;;;6.47;1.13;;;;;;;7.08;64.24;99954.91;4870951;29;20045;-83
2020/12/24 03:00:09;;;;;;;8.38;1.02;;;;;;;7.18;63.71;99959.34;4873639;29;20532;-84
2020/12/24 03:02:41;;;;;;;5.95;1.35;;;;;;;7.22;63.60;99954.19;4871586;29;20064;-84
2020/12/24 03:05:08;;;;;;;7.90;1.23;;;;;;;7.03;63.59;99957.44;4869788;29;20518;-83
2020/12/24 03:07:35;;;;;;;8.95;1.35;;;;;;;7.04;63.44;99954.00;4866913;29;20057;-84
2020/12/24 03:10:05;;;;;;;7.35;1.10;;;;;;;6.65;64.39;99961.31;4862443;29;20047;-84
2020/12/24 03:12:32;;;;;;;7.00;0.90;;;;;;;6.66;64.54;99961.34;4873220;29;20128;-84
2020/12/24 03:14:58;;;;;;;4.00;1.30;;;;;;;6.38;65.70;99956.66;4870478;29;20069;-83
2020/12/24 03:17:28;;;;;;;4.70;0.95;;;;;;;6.71;64.26;99957.09;4872679;29;20048;-83
2020/12/24 03:20:13;;;;;;;6.10;1.30;;;;;;;6.45;65.15;99948.09;4857467;29;20128;-83
2020/12/24 03:22:44;;;;;;;4.65;1.08;;;;;;;6.18;65.95;99958.09;4873822;29;20048;-82
2020/12/24 03:25:11;;;;;;;15.93;1.42;;;;;;;5.94;66.08;99950.84;4863661;29;20056;-83
2020/12/24 03:27:41;;;;;;;6.82;1.08;;;;;;;5.98;66.73;99956.09;4859128;29;20362;-83
2020/12/24 03:30:10;;;;;;;10.15;1.25;;;;;;;6.37;65.32;99954.91;4857613;29;20430;-82
2020/12/24 03:32:38;;;;;;;9.90;1.00;;;;;;;6.09;65.48;99953.66;4864726;29;20220;-83
2020/12/24 03:35:06;;;;;;;14.90;1.45;;;;;;;6.09;65.97;99970.06;4870668;29;20064;-82
2020/12/24 03:37:34;;;;;;;10.35;1.13;;;;;;;6.12;65.36;99964.06;4848275;29;20113;-83
2020/12/24 03:40:02;;;;;;;5.35;0.82;;;;;;;6.19;65.09;99971.06;4865776;29;20141;-83
2020/12/24 03:42:31;;;;;;;10.10;0.98;;;;;;;5.99;65.98;99973.41;4871641;29;20042;-83
2020/12/24 03:44:57;;;;;;;9.07;0.80;;;;;;;5.60;67.06;99971.00;4873434;29;20488;-83
2020/12/24 03:47:24;;;;;;;17.10;1.10;;;;;;;5.74;66.22;99979.00;4867477;29;20041;-83
2020/12/24 03:49:50;;;;;;;6.05;1.17;;;;;;;6.03;65.57;99989.88;4867492;29;20477;-83
2020/12/24 03:52:17;;;;;;;8.88;0.90;;;;;;;5.95;65.27;99997.50;4867703;29;20049;-82
2020/12/24 03:54:43;;;;;;;9.00;1.13;;;;;;;5.95;65.15;99997.50;4875499;29;20049;-82
2020/12/24 03:57:11;;;;;;;7.95;0.80;;;;;;;6.00;65.04;100010.53;4854884;29;20615;-82
2020/12/24 03:59:38;;;;;;;10.50;1.15;;;;;;;5.83;65.23;100015.44;4870707;29;20805;-83
2020/12/24 04:02:05;;;;;;;6.78;0.70;;;;;;;6.19;64.30;100017.75;4856453;29;20140;-83
2020/12/24 04:04:33;;;;;;;6.63;0.82;;;;;;;6.14;64.16;100033.25;4876502;29;20045;-82
2020/12/24 04:06:59;;;;;;;12.20;1.23;;;;;;;5.69;64.95;100025.59;4874331;29;20053;-82
2020/12/24 04:09:26;;;;;;;7.35;0.80;;;;;;;5.91;64.39;100036.31;4868760;29;20048;-82
2020/12/24 04:11:53;;;;;;;7.28;0.90;;;;;;;5.26;65.69;100033.41;4870269;29;20068;-83
2020/12/24 04:14:20;;;;;;;15.45;1.33;;;;;;;5.65;65.10;100044.53;4858597;29;20045;-83
2020/12/24 04:16:47;;;;;;;11.98;1.75;;;;;;;5.07;66.19;100033.91;4858662;29;20036;-82
2020/12/24 04:19:14;;;;;;;6.05;1.00;;;;;;;5.63;64.82;100047.91;4847435;29;20148;-82
2020/12/24 04:21:41;;;;;;;6.78;0.90;;;;;;;5.68;64.54;100059.25;4869293;29;20049;-83
2020/12/24 04:24:08;;;;;;;9.75;0.85;;;;;;;6.07;62.65;100049.59;4852628;29;20108;-84
2020/12/24 04:26:35;;;;;;;6.75;0.88;;;;;;;5.71;64.18;100054.09;4871146;29;20144;-83
2020/12/24 04:29:01;;;;;;;6.10;1.23;;;;;;;5.49;64.77;100046.78;4870353;29;20067;-83
2020/12/24 04:31:28;;;;;;;14.48;1.00;;;;;;;5.68;64.20;100052.34;4866478;29;20092;-83
2020/12/24 04:33:55;;;;;;;3.58;0.80;;;;;;;5.41;64.60;100049.25;4866021;29;20093;-83
2020/12/24 04:36:21;;;;;;;4.90;0.88;;;;;;;5.08;65.43;100043.41;4865219;29;20049;-82
2020/12/24 04:38:48;;;;;;;6.40;0.98;;;;;;;5.51;64.13;100048.59;4868996;29;20061;-83
2020/12/24 04:41:15;;;;;;;4.82;0.70;;;;;;;5.02;65.51;100049.34;4859981;29;20049;-82
2020/12/24 04:43:43;;;;;;;4.65;0.80;;;;;;;4.96;66.03;100056.97;4868925;29;20049;-83
2020/12/24 04:46:10;;;;;;;9.27;0.95;;;;;;;5.33;64.76;100061.16;4870493;29;20041;-82
2020/12/24 04:48:39;;;;;;;8.82;0.85;;;;;;;5.37;64.23;100065.56;4864276;29;20450;-83
2020/12/24 04:51:20;;;;;;;5.22;0.70;;;;;;;5.54;63.76;100061.59;4853881;29;20447;-82
2020/12/24 04:53:47;;;;;;;6.40;0.90;;;;;;;5.29;63.97;100067.13;4855865;29;20072;-82
2020/12/24 04:56:16;;;;;;;2.60;0.57;;;;;;;5.07;64.88;100086.56;4858071;29;20685;-81
2020/12/24 04:58:52;;;;;;;4.80;0.90;;;;;;;5.22;63.57;100079.13;4865624;29;20166;-82
2020/12/24 05:01:20;;;;;;;7.97;0.80;;;;;;;5.50;62.97;100085.69;4866845;29;20049;-83
2020/12/24 05:03:47;;;;;;;4.00;0.60;;;;;;;5.05;63.57;100080.47;4838035;29;20071;-83
2020/12/24 05:06:15;;;;;;;3.90;0.73;;;;;;;5.23;63.10;100085.13;4865378;29;20049;-82
2020/12/24 05:08:58;;;;;;;6.55;0.82;;;;;;;4.96;63.26;100088.03;4863811;29;20164;-83
2020/12/24 05:11:33;;;;;;;5.22;0.70;;;;;;;5.17;62.67;100087.63;4866407;29;20151;-82
2020/12/24 05:14:15;;;;;;;4.65;0.80;;;;;;;5.23;61.96;100092.91;4872648;29;20372;-83
2020/12/24 05:17:05;;;;;;;3.28;0.47;;;;;;;5.27;60.95;100100.78;4864922;29;20177;-82
2020/12/24 05:19:35;;;;;;;8.45;0.70;;;;;;;5.48;60.42;100096.88;4864696;29;20049;-81
2020/12/24 05:22:19;;;;;;;4.05;0.60;;;;;;;4.86;61.57;100091.28;4874998;29;20073;-81
2020/12/24 05:24:46;;;;;;;8.15;0.68;;;;;;;4.97;62.13;100099.28;4878516;29;20045;-81
2020/12/24 05:27:21;;;;;;;5.75;0.95;;;;;;;5.07;61.86;100098.63;4875177;29;20177;-81
2020/12/24 05:29:49;;;;;;;3.13;1.10;;;;;;;4.73;62.97;100100.50;4876964;29;20040;-82
2020/12/24 05:32:29;;;;;;;1.42;0.50;;;;;;;4.48;63.10;100105.94;4870400;29;20518;-82
2020/12/24 05:35:08;;;;;;;6.32;0.70;;;;;;;5.07;61.04;100106.41;4870640;29;20048;-82
2020/12/24 05:37:35;;;;;;;3.00;0.57;;;;;;;4.46;62.06;100107.59;4854399;29;20125;-82
2020/12/24 05:40:38;;;;;;;7.40;0.60;;;;;;;4.38;62.47;100127.25;4869444;29;20120;-81
2020/12/24 05:43:06;;;;;;;1.90;0.47;;;;;;;4.94;61.48;100125.13;4849277;29;20530;-82
2020/12/24 05:45:33;;;;;;;3.50;0.50;;;;;;;4.89;61.28;100125.00;4837924;29;20061;-81
2020/12/24 05:48:14;;;;;;;1.35;0.47;;;;;;;4.91;60.97;100119.84;4851793;29;20054;-82
2020/12/24 05:50:42;;;;;;;3.78;0.55;;;;;;;4.50;61.43;100129.28;4831407;29;20049;-82
2020/12/24 05:53:10;;;;;;;2.65;0.60;;;;;;;5.24;59.99;100134.38;4833181;29;20144;-83
2020/12/24 05:55:39;;;;;;;3.38;0.30;;;;;;;4.78;61.03;100131.66;4852333;29;20482;-82
2020/12/24 05:58:07;;;;;;;2.80;0.40;;;;;;;4.75;60.93;100124.69;4846902;29;20129;-82
2020/12/24 06:00:41;;;;;;;4.22;1.05;;;;;;;5.00;60.10;100131.28;4833021;29;20060;-81
2020/12/24 06:03:20;;;;;;;3.15;0.70;;;;;;;5.11;59.93;100134.09;4832338;29;20072;-83
2020/12/24 06:05:57;;;;;;;2.65;0.68;;;;;;;4.95;60.18;100143.25;4819123;29;20062;-81
2020/12/24 06:08:28;;;;;;;6.10;0.68;;;;;;;4.89;60.24;100140.53;4849062;29;20053;-82
2020/12/24 06:11:09;;;;;;;10.20;0.80;;;;;;;4.79;60.72;100142.06;4831806;29;20072;-80
2020/12/24 06:13:52;;;;;;;4.50;0.50;;;;;;;4.95;60.60;100145.84;4820857;29;20245;-80
2020/12/24 06:16:26;;;;;;;6.30;0.77;;;;;;;4.69;61.15;100140.09;4838296;29;20083;-81
2020/12/24 06:18:54;;;;;;;1.45;0.30;;;;;;;4.98;60.13;100139.88;4851383;29;20777;-81
2020/12/24 06:21:22;;;;;;;4.65;0.52;;;;;;;4.27;62.15;100134.75;4845674;29;20505;-80
2020/12/24 06:23:58;;;;;;;3.30;1.00;;;;;;;4.61;61.88;100133.84;4861181;29;20432;-81
2020/12/24 06:26:34;;;;;;;3.85;0.60;;;;;;;4.52;60.46;100137.94;4882205;29;20094;-80
2020/12/24 06:29:02;;;;;;;0.47;0.28;;;;;;;4.59;61.04;100129.47;4866136;29;20060;-80
2020/12/24 06:31:30;;;;;;;5.25;0.55;;;;;;;4.51;61.33;100137.03;4863745;29;20046;-81
2020/12/24 06:33:57;;;;;;;3.67;0.60;;;;;;;4.75;60.69;100131.56;4869395;29;20069;-80
2020/12/24 06:36:36;;;;;;;5.50;0.50;;;;;;;4.76;60.76;100126.44;4864848;29;20207;-80
2020/12/24 06:39:05;;;;;;;2.95;0.73;;;;;;;4.42;61.63;100126.47;4878408;29;20061;-80
2020/12/24 06:41:41;;;;;;;2.22;0.63;;;;;;;4.70;60.60;100128.03;4867831;29;20140;-79
2020/12/24 06:44:09;;;;;;;4.70;0.47;;;;;;;4.23;61.98;100130.34;4850594;29;20141;-79
2020/12/24 06:46:59;;;;;;;2.45;0.60;;;;;;;4.29;61.85;100138.25;4854591;29;20366;-79
2020/12/24 06:49:31;;;;;;;4.88;0.45;;;;;;;4.73;60.97;100139.31;4865832;29;20072;-79
2020/12/24 06:51:59;;;;;;;1.80;0.40;;;;;;;4.58;61.08;100153.59;4871992;29;20096;-79
2020/12/24 06:54:27;;;;;;;2.97;0.60;;;;;;;4.48;60.66;100143.88;4865449;29;20041;-78
2020/12/24 06:57:25;;;;;;;4.63;0.63;;;;;;;4.26;61.73;100145.94;4864338;29;20045;-79
2020/12/24 07:00:17;;;;;;;5.50;0.80;;;;;;;4.29;61.96;100156.34;4870021;29;20056;-79
2020/12/24 07:02:49;;;;;;;5.53;0.98;;;;;;;4.32;61.24;100161.59;4869749;29;20624;-80
2020/12/24 07:05:40;;;;;;;2.88;0.50;;;;;;;4.65;60.97;100171.03;4862794;29;20087;-80
2020/12/24 07:08:31;;;;;;;3.25;0.70;;;;;;;4.54;60.71;100167.31;4866612;29;20052;-80
2020/12/24 07:11:03;;;;;;;2.17;0.43;;;;;;;4.55;60.57;100184.59;4856681;29;20045;-79
2020/12/24 07:13:37;;;;;;;2.95;0.38;;;;;;;4.26;61.48;100187.31;4862634;29;20140;-78
2020/12/24 07:16:12;;;;;;;5.88;0.80;;;;;;;4.36;61.22;100201.38;4868178;29;20057;-79
2020/12/24 07:18:41;;;;;;;0.93;0.40;;;;;;;4.30;61.11;100215.00;4855202;29;20450;-79
2020/12/24 07:21:10;;;;;;;1.52;0.60;;;;;;;4.28;61.38;100221.84;4852717;29;20676;-79
2020/12/24 07:23:52;;;;;;;4.65;0.50;;;;;;;4.62;60.54;100222.69;4868929;29;20490;-79
2020/12/24 07:26:19;;;;;;;3.33;0.50;;;;;;;4.06;61.83;100227.28;4853571;29;20525;-79
2020/12/24 07:28:56;;;;;;;3.22;0.50;;;;;;;4.22;61.92;100231.16;4856252;29;20064;-78
2020/12/24 07:31:26;;;;;;;2.40;0.45;;;;;;;4.08;62.66;100235.06;4841834;29;20045;-79
2020/12/24 07:33:55;;;;;;;3.75;0.90;;;;;;;4.14;61.91;100237.81;4871892;29;20052;-78
2020/12/24 07:36:27;;;;;;;4.30;0.60;;;;;;;4.44;61.20;100242.94;4858612;29;20598;-78
2020/12/24 07:38:55;;;;;;;;;;;;;;;4.37;61.31;100253.13;4855292;29;20634;-78
2020/12/24 07:41:24;;;;;;;1.27;0.43;;;;;;;4.65;60.91;100248.66;4867552;29;19928;-78
2020/12/24 07:43:50;;;;;;;8.82;0.77;;;;;;;4.15;61.81;100247.34;4875043;29;20045;-77
2020/12/24 07:46:21;;;;;;;8.65;0.70;;;;;;;4.60;60.18;100255.44;4866646;29;20045;-77
2020/12/24 07:48:48;;;;;;;4.65;0.82;;;;;;;4.52;60.48;100255.22;4865371;29;20056;-78
2020/12/24 07:51:15;;;;;;;5.10;0.68;;;;;;;4.32;59.95;100253.81;4868693;29;20049;-79
2020/12/24 07:53:42;;;;;;;3.50;0.75;;;;;;;4.69;60.12;100266.03;4868203;29;20072;-78
2020/12/24 07:56:09;;;;;;;4.50;1.17;;;;;;;4.03;61.62;100278.91;4869338;29;20053;-79
2020/12/24 07:58:36;;;;;;;4.22;0.82;;;;;;;4.38;60.86;100282.44;4865468;29;20081;-78
2020/12/24 08:01:05;;;;;;;4.15;0.65;;;;;;;4.52;60.51;100298.31;4864389;29;20056;-78
2020/12/24 08:03:32;;;;;;;3.63;1.33;;;;;;;4.87;59.40;100294.94;4873770;29;20049;-79
2020/12/24 08:06:08;;;;;;;2.80;0.80;;;;;;;4.59;60.02;100295.09;4872720;29;20053;-79
2020/12/24 08:08:37;;;;;;;3.20;0.60;;;;;;;4.02;62.11;100297.84;4830702;29;20065;-78
2020/12/24 08:11:08;;;;;;;1.52;0.65;;;;;;;4.45;60.62;100299.03;4822360;29;20192;-79
2020/12/24 08:13:35;;;;;;;4.28;0.80;;;;;;;4.44;60.56;100299.84;4829009;29;20085;-78
2020/12/24 08:16:03;;;;;;;2.67;0.88;;;;;;;4.69;59.39;100305.72;4841112;29;20530;-78
2020/12/24 08:18:45;;;;;;;8.38;0.95;;;;;;;4.47;60.80;100318.91;4829538;29;20503;-78
2020/12/24 08:21:26;;;;;;;2.20;0.80;;;;;;;4.68;60.30;100326.38;4801590;29;20065;-78
2020/12/24 08:24:00;;;;;;;5.65;0.90;;;;;;;4.49;60.62;100343.13;4813039;29;20055;-78
2020/12/24 08:26:27;;;;;;;7.30;2.17;;;;;;;4.11;61.80;100347.22;4823480;29;20097;-78
2020/12/24 08:28:57;;;;;;;6.00;0.73;;;;;;;4.61;60.41;100345.16;4831376;29;20509;-77
2020/12/24 08:31:26;;;;;;;3.08;0.90;;;;;;;4.44;60.71;100354.19;4832548;29;20137;-79
2020/12/24 08:33:53;;;;;;;4.72;0.95;;;;;;;4.68;60.33;100357.44;4826374;29;20149;-77
2020/12/24 08:36:23;;;;;;;7.70;1.17;;;;;;;4.51;60.84;100356.97;4806991;29;20046;-76
2020/12/24 08:38:51;;;;;;;9.68;1.30;;;;;;;4.72;60.38;100370.50;4835837;29;20064;-77
2020/12/24 08:41:24;;;;;;;2.53;0.82;;;;;;;4.70;60.12;100369.56;4855149;29;20045;-78
2020/12/24 08:43:53;;;;;;;4.68;1.17;;;;;;;4.34;60.99;100376.31;4851888;29;20057;-78
2020/12/24 08:46:23;;;;;;;6.18;0.90;;;;;;;4.46;60.96;100371.47;4863796;29;20045;-78
2020/12/24 08:48:52;;;;;;;5.22;0.82;;;;;;;4.50;60.05;100372.47;4867461;29;20059;-79
2020/12/24 08:51:20;;;;;;;7.72;1.10;;;;;;;4.70;59.45;100371.31;4835206;29;20045;-78
2020/12/24 08:54:06;;;;;;;5.00;0.60;;;;;;;4.26;60.83;100385.59;4848454;29;20828;-79
2020/12/24 08:56:34;;;;;;;4.00;0.90;;;;;;;4.81;59.42;100391.44;4837226;29;20053;-77
2020/12/24 08:59:09;;;;;;;8.00;0.70;;;;;;;4.47;60.18;100414.63;4849000;29;20138;-78
2020/12/24 09:01:39;;;;;;;8.88;3.40;;;;;;;4.76;59.51;100403.38;4863086;29;20085;-79
2020/12/24 09:04:16;;;;;;;3.75;1.40;;;;;;;4.79;59.07;100423.31;4848476;29;20045;-79
2020/12/24 09:06:44;;;;;;;5.28;0.50;;;;;;;4.71;59.50;100423.06;4848639;29;20148;-80
2020/12/24 09:09:25;;;;;;;7.32;1.10;;;;;;;5.25;58.17;100427.97;4849195;29;20120;-78
2020/12/24 09:11:54;;;;;;;5.32;1.10;;;;;;;5.56;57.34;100435.66;4846533;29;20560;-78
2020/12/24 09:14:28;;;;;;;6.90;1.15;;;;;;;5.46;57.15;100432.81;4855224;29;20061;-79
2020/12/24 09:17:01;;;;;;;2.75;0.77;;;;;;;6.25;54.96;100438.16;4866078;29;20539;-79
2020/12/24 09:19:27;;;;;;;6.15;0.77;;;;;;;7.33;51.43;100443.78;4869400;29;20492;-79
2020/12/24 09:21:56;;;;;;;3.30;0.90;;;;;;;7.84;50.58;100440.28;4866790;29;20120;-80
2020/12/24 09:24:24;;;;;;;1.92;0.52;;;;;;;8.48;48.78;100449.03;4870312;29;20128;-79
2020/12/24 09:26:53;;;;;;;3.78;0.70;;;;;;;8.74;47.69;100466.72;4866844;29;20136;-80
2020/12/24 09:29:21;;;;;;;3.50;0.70;;;;;;;9.42;45.96;100455.31;4863728;29;20056;-79
2020/12/24 09:32:01;;;;;;;4.50;0.70;;;;;;;9.71;45.84;100471.22;4870478;29;20053;-81
2020/12/24 09:34:30;;;;;;;4.65;1.30;;;;;;;10.23;44.49;100465.53;4880333;29;20057;-80
2020/12/24 09:36:57;;;;;;;2.75;0.93;;;;;;;11.38;42.27;100473.84;4874712;29;20155;-80
2020/12/24 09:39:24;;;;;;;5.28;0.88;;;;;;;9.75;43.94;100476.47;4844636;29;20149;-82
2020/12/24 09:41:52;;;;;;;2.83;0.77;;;;;;;8.16;48.64;100484.97;4850173;29;20041;-81
2020/12/24 09:44:19;;;;;;;11.95;2.03;;;;;;;8.43;48.83;100490.66;4854151;29;20204;-82
2020/12/24 09:46:48;;;;;;;9.52;1.00;;;;;;;9.30;47.27;100487.38;4852596;29;20137;-80
2020/12/24 09:49:16;;;;;;;6.97;0.95;;;;;;;9.57;46.42;100484.13;4840658;29;20139;-78
2020/12/24 09:51:43;;;;;;;2.90;0.70;;;;;;;10.20;45.61;100486.44;4851394;29;20204;-80
2020/12/24 09:54:28;;;;;;;4.30;0.80;;;;;;;10.45;44.18;100488.31;4856614;29;20060;-79
2020/12/24 09:56:57;;;;;;;6.47;1.10;;;;;;;10.79;43.10;100493.72;4832488;29;20240;-85
2020/12/24 09:59:23;;;;;;;4.88;0.95;;;;;;;12.12;40.50;100501.84;4847345;29;20057;-85
2020/12/24 10:01:54;;;;;;;4.60;1.20;;;;;;;12.16;39.56;100502.72;4871825;29;20077;-84
2020/12/24 10:04:22;;;;;;;10.07;1.10;;;;;;;11.67;41.72;100502.69;4855097;29;20085;-86
2020/12/24 10:06:49;;;;;;;7.57;1.38;;;;;;;10.26;43.91;100498.66;4836826;29;20075;-85
2020/12/24 10:09:17;;;;;;;5.90;0.95;;;;;;;11.02;43.39;100501.66;4851673;29;20478;-85
2020/12/24 10:11:48;;;;;;;5.97;0.90;;;;;;;10.44;43.71;100499.63;4851125;29;20057;-84
2020/12/24 10:14:17;;;;;;;5.68;1.00;;;;;;;11.13;42.48;100511.28;4827691;29;20057;-82
2020/12/24 10:16:43;;;;;;;3.95;1.33;;;;;;;11.76;41.97;100525.41;4853107;29;20056;-82
2020/12/24 10:19:11;;;;;;;4.22;0.80;;;;;;;12.47;40.10;100530.59;4841096;29;20052;-82
2020/12/24 10:21:39;;;;;;;4.40;1.20;;;;;;;12.96;37.83;100531.34;4849923;29;20050;-82
2020/12/24 10:24:15;;;;;;;4.30;1.00;;;;;;;13.12;37.90;100541.81;4851552;29;20066;-82
2020/12/24 10:26:45;;;;;;;3.83;0.90;;;;;;;13.27;37.28;100547.88;4850780;29;20045;-82
2020/12/24 10:29:12;;;;;;;4.85;0.80;;;;;;;14.47;35.10;100552.31;4839025;29;20366;-82
2020/12/24 10:31:43;;;;;;;4.90;1.33;;;;;;;12.86;38.36;100558.47;4836718;29;20651;-80
2020/12/24 10:34:11;;;;;;;3.08;0.90;;;;;;;14.53;35.30;100549.59;4833002;29;20041;-86
2020/12/24 10:36:38;;;;;;;4.35;0.93;;;;;;;13.30;38.06;100557.47;4851798;29;20534;-90
2020/12/24 10:39:09;;;;;;;4.47;1.10;;;;;;;14.71;34.45;100554.69;4851622;29;20137;-87
2020/12/24 10:41:40;;;;;;;2.92;0.90;;;;;;;12.98;38.32;100562.84;4857467;29;20045;-89
2020/12/24 10:44:08;;;;;;;3.03;0.80;;;;;;;10.44;42.74;100558.84;4867868;29;20470;-83
2020/12/24 10:46:35;;;;;;;3.08;0.80;;;;;;;10.23;43.73;100556.06;4865945;29;20489;-86
2020/12/24 10:49:02;;;;;;;5.63;1.10;;;;;;;10.49;44.95;100563.25;4875123;29;20049;-84
2020/12/24 10:51:29;;;;;;;3.55;0.80;;;;;;;11.26;41.39;100554.94;4878143;29;20097;-85
2020/12/24 10:53:56;;;;;;;7.55;1.45;;;;;;;10.52;43.72;100567.59;4874673;29;20045;-86
2020/12/24 10:56:23;;;;;;;2.15;0.90;;;;;;;9.68;45.74;100573.81;4867347;29;20402;-86
2020/12/24 10:58:50;;;;;;;5.03;1.58;;;;;;;8.94;47.85;100567.72;4867972;29;20804;-84
2020/12/24 11:01:18;;;;;;;5.13;1.15;;;;;;;9.97;45.88;100568.88;4872941;29;20052;-85
2020/12/24 11:03:50;;;;;;;3.95;1.00;;;;;;;9.95;46.24;100571.47;4870404;29;20173;-90
2020/12/24 11:06:23;;;;;;;5.97;1.42;;;;;;;9.59;46.31;100568.53;4879802;29;20136;-87
2020/12/24 11:08:52;;;;;;;4.25;1.08;;;;;;;10.09;45.78;100579.41;4878628;29;20579;-84
2020/12/24 11:11:19;;;;;;;3.28;0.95;;;;;;;10.08;45.51;100583.75;4873186;29;20041;-87
2020/12/24 11:13:47;;;;;;;3.30;0.90;;;;;;;9.56;47.84;100587.59;4872815;29;20037;-90
2020/12/24 11:16:22;;;;;;;3.50;1.08;;;;;;;8.90;48.92;100598.09;4877404;29;20137;-82
2020/12/24 11:18:49;;;;;;;5.13;1.17;;;;;;;9.44;48.28;100591.81;4876033;29;20060;-85
2020/12/24 11:21:20;;;;;;;4.53;0.98;;;;;;;10.64;46.04;100595.56;4878945;29;20100;-88
2020/12/24 11:23:47;;;;;;;3.40;0.88;;;;;;;11.90;42.78;100594.34;4868691;29;20068;-86
2020/12/24 11:26:25;;;;;;;4.35;1.02;;;;;;;10.78;45.31;100599.13;4855891;29;20057;-84
2020/12/24 11:28:53;;;;;;;2.78;0.85;;;;;;;10.47;45.57;100596.31;4873416;29;20457;-86
2020/12/24 11:31:27;;;;;;;5.22;1.00;;;;;;;10.02;46.79;100611.56;4887881;29;20075;-80
2020/12/24 11:33:55;;;;;;;6.25;1.40;;;;;;;9.53;49.50;100608.44;4886504;29;20059;-81
2020/12/24 11:36:24;;;;;;;7.68;1.00;;;;;;;9.87;47.14;100614.91;4858387;29;20049;-80
2020/12/24 11:38:52;;;;;;;4.00;0.70;;;;;;;10.28;46.42;100615.31;4869522;29;20060;-82
2020/12/24 11:41:25;;;;;;;2.55;0.82;;;;;;;11.22;45.00;100610.69;4872487;29;20466;-83
2020/12/24 11:43:53;;;;;;;3.65;1.15;;;;;;;10.95;46.48;100621.00;4874720;29;20726;-83
2020/12/24 11:46:23;;;;;;;3.05;0.90;;;;;;;11.02;46.65;100642.84;4873030;29;20041;-82
2020/12/24 11:48:54;;;;;;;1.77;0.80;;;;;;;10.53;47.02;100633.78;4877669;29;20072;-84